No1 Tokuyama — JK5318 — position and weather

sailwx.info

Track history (hours):
 
Tides and Currents Weather Stations Pressure Air Temp Water Temp Dewpoint Dewpoint Depression Visibility Wind Speed Wind Dir Waves Ship Positions

No1 Tokuyama

Last reported at 2015-Jun-26 09:26 UTC. Time now 2015-Jul-07 17:33 UTC.
Position N 34°33' E 134°44'.
Warning: this ship's position is 11 days out of date.

Length 110 m; draft 5.5 m.

Type: Cargo ship. MMSI: 431400487.

Date/timePositionNaut miles runAvg speedWind from/ knotsBaromVisibWave heightAir tempDewpointWater temp
2015-Jun-26 09:26N 34°33' E 134°44'1315.2
2015-Jun-26 08:33N 34°38' E 134°60'1212.0
2015-Jun-26 07:33N 34°26' E 135°03'1514.9
2015-Jun-26 06:34N 34°11' E 134°59'17811.1
2015-Jun-25 14:32N 34°31' E 138°34'5213.1
2015-Jun-25 10:31N 34°59' E 139°28'1313.5
2015-Jun-25 09:33N 35°06' E 139°41'1111.4
2015-Jun-25 08:33N 35°17' E 139°45'1211.6
2015-Jun-25 07:33N 35°29' E 139°47'3 3.1
2015-Jun-25 06:33N 35°30' E 139°44'0 0.0
2015-Jun-25 05:33N 35°30' E 139°44'0 0.0
2015-Jun-25 04:33N 35°30' E 139°44'0 0.0
2015-Jun-25 03:33N 35°30' E 139°44'0 0.0
2015-Jun-25 02:33N 35°30' E 139°44'0 0.0
2015-Jun-25 01:33N 35°30' E 139°44'0 0.0
2015-Jun-25 00:33N 35°30' E 139°44'0 0.0
2015-Jun-24 23:33N 35°30' E 139°44'1 1.2
2015-Jun-24 22:33N 35°29' E 139°43'5 5.2
2015-Jun-24 21:32N 35°24' E 139°45'0 0.0
2015-Jun-24 20:32N 35°24' E 139°45'0 0.0
2015-Jun-24 19:32N 35°24' E 139°45'0 0.0
2015-Jun-24 18:32N 35°24' E 139°45'0 0.0
2015-Jun-24 17:32N 35°24' E 139°45'0 0.0
2015-Jun-24 16:32N 35°24' E 139°45'0 0.0
2015-Jun-24 15:32N 35°24' E 139°45'0 0.0
2015-Jun-24 14:32N 35°24' E 139°45'0 0.1
2015-Jun-24 13:32N 35°24' E 139°45'0 0.1
2015-Jun-24 12:32N 35°24' E 139°45'0 0.0
2015-Jun-24 11:32N 35°24' E 139°45'0 0.0
2015-Jun-24 10:32N 35°24' E 139°45'0 0.0
2015-Jun-24 09:32N 35°24' E 139°45'0 0.0
2015-Jun-24 08:32N 35°24' E 139°45'0 0.0
2015-Jun-24 07:32N 35°24' E 139°45'0 0.1
2015-Jun-24 06:32N 35°24' E 139°45'0 0.1
2015-Jun-24 05:32N 35°24' E 139°45'0 0.0
2015-Jun-24 04:32N 35°24' E 139°45'0 0.0
2015-Jun-24 03:32N 35°24' E 139°45'0 0.0
2015-Jun-24 02:29N 35°24' E 139°45'0 0.0
2015-Jun-24 01:32N 35°24' E 139°45'0 0.1
2015-Jun-24 00:32N 35°24' E 139°45'0 0.0
2015-Jun-23 23:32N 35°24' E 139°45'0 0.0
2015-Jun-23 22:32N 35°24' E 139°45'0 0.0
2015-Jun-23 21:32N 35°24' E 139°45'0 0.0
2015-Jun-23 20:32N 35°24' E 139°45'0 0.1
2015-Jun-23 19:32N 35°24' E 139°45'0 0.0
2015-Jun-23 19:02N 35°24' E 139°45'4 0.2
2015-Jun-22 19:32N 35°22' E 139°49'0 0.1
2015-Jun-22 18:32N 35°22' E 139°49'0 0.0
2015-Jun-22 17:32N 35°22' E 139°49'0 0.0
2015-Jun-22 16:32N 35°22' E 139°49'0 0.1
2015-Jun-22 15:32N 35°22' E 139°49'0 0.0
2015-Jun-22 14:32N 35°22' E 139°49'0 0.1
2015-Jun-22 13:32N 35°22' E 139°49'0 0.0
2015-Jun-22 12:29N 35°22' E 139°49'0 0.0
2015-Jun-22 11:32N 35°22' E 139°49'0 0.1
2015-Jun-22 10:32N 35°22' E 139°49'0 0.0
2015-Jun-22 09:32N 35°22' E 139°49'0 0.0
2015-Jun-22 08:32N 35°22' E 139°49'0 0.0
2015-Jun-22 07:32N 35°22' E 139°49'6 6.6
2015-Jun-22 06:33N 35°28' E 139°50'6 6.1
2015-Jun-22 05:33N 35°27' E 139°58'0 0.0
2015-Jun-22 04:10N 35°27' E 139°58'0 0.0
2015-Jun-22 03:16N 35°27' E 139°58'0 0.0
2015-Jun-22 02:28N 35°27' E 139°58'0 0.0
2015-Jun-22 01:28N 35°27' E 139°58'0 0.0
2015-Jun-22 00:28N 35°27' E 139°58'0 0.0
2015-Jun-21 23:28N 35°27' E 139°58'0 0.0
2015-Jun-21 22:28N 35°27' E 139°58'2 2.5
2015-Jun-21 21:33N 35°29' E 139°56'0 0.1
2015-Jun-21 20:30N 35°29' E 139°56'0 0.0
2015-Jun-21 19:33N 35°29' E 139°56'0 0.0
2015-Jun-21 18:30N 35°29' E 139°56'0 0.1
2015-Jun-21 17:30N 35°29' E 139°56'0 0.1
2015-Jun-21 16:33N 35°29' E 139°56'0 0.0
2015-Jun-21 15:33N 35°29' E 139°56'0 0.0
2015-Jun-21 14:30N 35°29' E 139°56'0 0.0
2015-Jun-21 13:30N 35°29' E 139°56'0 0.0
2015-Jun-21 12:33N 35°29' E 139°56'0 0.0
2015-Jun-21 11:33N 35°29' E 139°56'0 0.1
2015-Jun-21 10:30N 35°29' E 139°56'0 0.0
2015-Jun-21 09:33N 35°29' E 139°56'0 0.0
2015-Jun-21 08:33N 35°29' E 139°56'0 0.0
2015-Jun-21 07:30N 35°29' E 139°56'0 0.0
2015-Jun-21 06:27N 35°29' E 139°56'0 0.0
2015-Jun-21 05:33N 35°29' E 139°56'0 0.1
2015-Jun-21 04:33N 35°29' E 139°56'0 0.0
2015-Jun-21 03:30N 35°29' E 139°56'0 0.0
2015-Jun-21 02:30N 35°29' E 139°56'0 0.0
2015-Jun-21 01:33N 35°29' E 139°56'0 0.0
2015-Jun-21 00:33N 35°29' E 139°56'0 0.0
2015-Jun-20 23:30N 35°29' E 139°56'0 0.0
2015-Jun-20 22:33N 35°29' E 139°56'0 0.0
2015-Jun-20 21:24N 35°29' E 139°56'0 0.1
2015-Jun-20 20:33N 35°29' E 139°56'0 0.0
2015-Jun-20 19:30N 35°29' E 139°56'0 0.0
2015-Jun-20 18:33N 35°29' E 139°56'0 0.0
2015-Jun-20 17:30N 35°29' E 139°56'0 0.0
2015-Jun-20 16:33N 35°29' E 139°56'0 0.1
2015-Jun-20 15:33N 35°29' E 139°56'0 0.0
2015-Jun-20 14:33N 35°29' E 139°56'0 0.1
2015-Jun-20 13:24N 35°29' E 139°56'0 0.0
2015-Jun-20 12:30N 35°29' E 139°56'0 0.2
2015-Jun-20 11:33N 35°29' E 139°56'1010.1
2015-Jun-20 10:34N 35°26' E 139°44'3 2.6
2015-Jun-20 09:33N 35°26' E 139°41'0 0.0
2015-Jun-20 08:33N 35°26' E 139°41'0 0.0
2015-Jun-20 07:34N 35°26' E 139°41'6 5.5
2015-Jun-20 06:33N 35°20' E 139°43'1111.3
2015-Jun-20 05:33N 35°09' E 139°46'1211.9
2015-Jun-20 04:33N 35°00' E 139°36'  
2015-Jun-17 07:32N 33°56' E 130°28'1212.6
2015-Jun-17 06:33N 33°46' E 130°19'10 9.8
2015-Jun-17 05:33N 33°37' E 130°23'1 0.6
2015-Jun-17 04:31N 33°37' E 130°24'0 0.0
2015-Jun-17 02:28N 33°37' E 130°24'0 0.0
2015-Jun-17 01:31N 33°37' E 130°24'0 0.0
2015-Jun-17 00:31N 33°37' E 130°24'0 0.0
2015-Jun-16 23:30N 33°37' E 130°24'0 0.1
2015-Jun-16 22:32N 33°37' E 130°24'4 3.0
2015-Jun-16 21:22N 33°38' E 130°20'0 0.0
2015-Jun-16 20:28N 33°38' E 130°20'0 0.0
2015-Jun-16 19:31N 33°38' E 130°20'0 0.0
2015-Jun-16 18:31N 33°38' E 130°20'0 0.1
2015-Jun-16 17:31N 33°38' E 130°20'0 0.0
2015-Jun-16 16:31N 33°38' E 130°20'0 0.0
2015-Jun-16 15:31N 33°38' E 130°20'0 0.0
2015-Jun-16 14:30N 33°38' E 130°20'0 0.1
2015-Jun-16 13:28N 33°38' E 130°20'0 0.0
2015-Jun-16 12:33N 33°38' E 130°20'0 0.0
2015-Jun-16 11:07N 33°38' E 130°20'0 0.0
2015-Jun-16 10:25N 33°38' E 130°20'  
Track history (hours):
 
Tides and Currents Weather Stations Pressure Air Temp Water Temp Dewpoint Dewpoint Depression Visibility Wind Speed Wind Dir Waves Ship Positions

No1 Tokuyama

Last reported at 2015-Jun-26 09:26 UTC. Time now 2015-Jul-07 17:33 UTC.
Position N 34°33' E 134°44'.
Warning: this ship's position is 11 days out of date.

Length 110 m; draft 5.5 m.

Type: Cargo ship. MMSI: 431400487.

Date/timePositionNaut miles runAvg speedWind from/ knotsBaromVisibWave heightAir tempDewpointWater temp
2015-Jun-26 09:26N 34°33' E 134°44'1315.2
2015-Jun-26 08:33N 34°38' E 134°60'1212.0
2015-Jun-26 07:33N 34°26' E 135°03'1514.9
2015-Jun-26 06:34N 34°11' E 134°59'17811.1
2015-Jun-25 14:32N 34°31' E 138°34'5213.1
2015-Jun-25 10:31N 34°59' E 139°28'1313.5
2015-Jun-25 09:33N 35°06' E 139°41'1111.4
2015-Jun-25 08:33N 35°17' E 139°45'1211.6
2015-Jun-25 07:33N 35°29' E 139°47'3 3.1
2015-Jun-25 06:33N 35°30' E 139°44'0 0.0
2015-Jun-25 05:33N 35°30' E 139°44'0 0.0
2015-Jun-25 04:33N 35°30' E 139°44'0 0.0
2015-Jun-25 03:33N 35°30' E 139°44'0 0.0
2015-Jun-25 02:33N 35°30' E 139°44'0 0.0
2015-Jun-25 01:33N 35°30' E 139°44'0 0.0
2015-Jun-25 00:33N 35°30' E 139°44'0 0.0
2015-Jun-24 23:33N 35°30' E 139°44'1 1.2
2015-Jun-24 22:33N 35°29' E 139°43'5 5.2
2015-Jun-24 21:32N 35°24' E 139°45'0 0.0
2015-Jun-24 20:32N 35°24' E 139°45'0 0.0
2015-Jun-24 19:32N 35°24' E 139°45'0 0.0
2015-Jun-24 18:32N 35°24' E 139°45'0 0.0
2015-Jun-24 17:32N 35°24' E 139°45'0 0.0
2015-Jun-24 16:32N 35°24' E 139°45'0 0.0
2015-Jun-24 15:32N 35°24' E 139°45'0 0.0
2015-Jun-24 14:32N 35°24' E 139°45'0 0.1
2015-Jun-24 13:32N 35°24' E 139°45'0 0.1
2015-Jun-24 12:32N 35°24' E 139°45'0 0.0
2015-Jun-24 11:32N 35°24' E 139°45'0 0.0
2015-Jun-24 10:32N 35°24' E 139°45'0 0.0
2015-Jun-24 09:32N 35°24' E 139°45'0 0.0
2015-Jun-24 08:32N 35°24' E 139°45'0 0.0
2015-Jun-24 07:32N 35°24' E 139°45'0 0.1
2015-Jun-24 06:32N 35°24' E 139°45'0 0.1
2015-Jun-24 05:32N 35°24' E 139°45'0 0.0
2015-Jun-24 04:32N 35°24' E 139°45'0 0.0
2015-Jun-24 03:32N 35°24' E 139°45'0 0.0
2015-Jun-24 02:29N 35°24' E 139°45'0 0.0
2015-Jun-24 01:32N 35°24' E 139°45'0 0.1
2015-Jun-24 00:32N 35°24' E 139°45'0 0.0
2015-Jun-23 23:32N 35°24' E 139°45'0 0.0
2015-Jun-23 22:32N 35°24' E 139°45'0 0.0
2015-Jun-23 21:32N 35°24' E 139°45'0 0.0
2015-Jun-23 20:32N 35°24' E 139°45'0 0.1
2015-Jun-23 19:32N 35°24' E 139°45'0 0.0
2015-Jun-23 19:02N 35°24' E 139°45'4 0.2
2015-Jun-22 19:32N 35°22' E 139°49'0 0.1
2015-Jun-22 18:32N 35°22' E 139°49'0 0.0
2015-Jun-22 17:32N 35°22' E 139°49'0 0.0
2015-Jun-22 16:32N 35°22' E 139°49'0 0.1
2015-Jun-22 15:32N 35°22' E 139°49'0 0.0
2015-Jun-22 14:32N 35°22' E 139°49'0 0.1
2015-Jun-22 13:32N 35°22' E 139°49'0 0.0
2015-Jun-22 12:29N 35°22' E 139°49'0 0.0
2015-Jun-22 11:32N 35°22' E 139°49'0 0.1
2015-Jun-22 10:32N 35°22' E 139°49'0 0.0
2015-Jun-22 09:32N 35°22' E 139°49'0 0.0
2015-Jun-22 08:32N 35°22' E 139°49'0 0.0
2015-Jun-22 07:32N 35°22' E 139°49'6 6.6
2015-Jun-22 06:33N 35°28' E 139°50'6 6.1
2015-Jun-22 05:33N 35°27' E 139°58'0 0.0
2015-Jun-22 04:10N 35°27' E 139°58'0 0.0
2015-Jun-22 03:16N 35°27' E 139°58'0 0.0
2015-Jun-22 02:28N 35°27' E 139°58'0 0.0
2015-Jun-22 01:28N 35°27' E 139°58'0 0.0
2015-Jun-22 00:28N 35°27' E 139°58'0 0.0
2015-Jun-21 23:28N 35°27' E 139°58'0 0.0
2015-Jun-21 22:28N 35°27' E 139°58'2 2.5
2015-Jun-21 21:33N 35°29' E 139°56'0 0.1
2015-Jun-21 20:30N 35°29' E 139°56'0 0.0
2015-Jun-21 19:33N 35°29' E 139°56'0 0.0
2015-Jun-21 18:30N 35°29' E 139°56'0 0.1
2015-Jun-21 17:30N 35°29' E 139°56'0 0.1
2015-Jun-21 16:33N 35°29' E 139°56'0 0.0
2015-Jun-21 15:33N 35°29' E 139°56'0 0.0
2015-Jun-21 14:30N 35°29' E 139°56'0 0.0
2015-Jun-21 13:30N 35°29' E 139°56'0 0.0
2015-Jun-21 12:33N 35°29' E 139°56'0 0.0
2015-Jun-21 11:33N 35°29' E 139°56'0 0.1
2015-Jun-21 10:30N 35°29' E 139°56'0 0.0
2015-Jun-21 09:33N 35°29' E 139°56'0 0.0
2015-Jun-21 08:33N 35°29' E 139°56'0 0.0
2015-Jun-21 07:30N 35°29' E 139°56'0 0.0
2015-Jun-21 06:27N 35°29' E 139°56'0 0.0
2015-Jun-21 05:33N 35°29' E 139°56'0 0.1
2015-Jun-21 04:33N 35°29' E 139°56'0 0.0
2015-Jun-21 03:30N 35°29' E 139°56'0 0.0
2015-Jun-21 02:30N 35°29' E 139°56'0 0.0
2015-Jun-21 01:33N 35°29' E 139°56'0 0.0
2015-Jun-21 00:33N 35°29' E 139°56'0 0.0
2015-Jun-20 23:30N 35°29' E 139°56'0 0.0
2015-Jun-20 22:33N 35°29' E 139°56'0 0.0
2015-Jun-20 21:24N 35°29' E 139°56'0 0.1
2015-Jun-20 20:33N 35°29' E 139°56'0 0.0
2015-Jun-20 19:30N 35°29' E 139°56'0 0.0
2015-Jun-20 18:33N 35°29' E 139°56'0 0.0
2015-Jun-20 17:30N 35°29' E 139°56'0 0.0
2015-Jun-20 16:33N 35°29' E 139°56'0 0.1
2015-Jun-20 15:33N 35°29' E 139°56'0 0.0
2015-Jun-20 14:33N 35°29' E 139°56'0 0.1
2015-Jun-20 13:24N 35°29' E 139°56'0 0.0
2015-Jun-20 12:30N 35°29' E 139°56'0 0.2
2015-Jun-20 11:33N 35°29' E 139°56'1010.1
2015-Jun-20 10:34N 35°26' E 139°44'3 2.6
2015-Jun-20 09:33N 35°26' E 139°41'0 0.0
2015-Jun-20 08:33N 35°26' E 139°41'0 0.0
2015-Jun-20 07:34N 35°26' E 139°41'6 5.5
2015-Jun-20 06:33N 35°20' E 139°43'1111.3
2015-Jun-20 05:33N 35°09' E 139°46'1211.9
2015-Jun-20 04:33N 35°00' E 139°36'  
2015-Jun-17 07:32N 33°56' E 130°28'1212.6
2015-Jun-17 06:33N 33°46' E 130°19'10 9.8
2015-Jun-17 05:33N 33°37' E 130°23'1 0.6
2015-Jun-17 04:31N 33°37' E 130°24'0 0.0
2015-Jun-17 02:28N 33°37' E 130°24'0 0.0
2015-Jun-17 01:31N 33°37' E 130°24'0 0.0
2015-Jun-17 00:31N 33°37' E 130°24'0 0.0
2015-Jun-16 23:30N 33°37' E 130°24'0 0.1
2015-Jun-16 22:32N 33°37' E 130°24'4 3.0
2015-Jun-16 21:22N 33°38' E 130°20'0 0.0
2015-Jun-16 20:28N 33°38' E 130°20'0 0.0
2015-Jun-16 19:31N 33°38' E 130°20'0 0.0
2015-Jun-16 18:31N 33°38' E 130°20'0 0.1
2015-Jun-16 17:31N 33°38' E 130°20'0 0.0
2015-Jun-16 16:31N 33°38' E 130°20'0 0.0
2015-Jun-16 15:31N 33°38' E 130°20'0 0.0
2015-Jun-16 14:30N 33°38' E 130°20'0 0.1
2015-Jun-16 13:28N 33°38' E 130°20'0 0.0
2015-Jun-16 12:33N 33°38' E 130°20'0 0.0
2015-Jun-16 11:07N 33°38' E 130°20'0 0.0
2015-Jun-16 10:25N 33°38' E 130°20'  

Dump ship's entire track history